createdAt,value
2019-04-25T00:00:48.325Z,47.409491
2019-04-25T00:01:52.325Z,47.409480
2019-04-25T00:02:55.318Z,47.409428
2019-04-25T00:03:58.320Z,47.409349
2019-04-25T00:05:01.367Z,47.409428
2019-04-25T00:06:06.333Z,47.409454
2019-04-25T00:07:09.273Z,47.409360
2019-04-25T00:08:12.359Z,47.409364
2019-04-25T00:09:15.307Z,47.409529
2019-04-25T00:10:18.305Z,47.409484
2019-04-25T00:11:21.613Z,47.409542
2019-04-25T00:12:24.317Z,47.409376
2019-04-25T00:13:27.295Z,47.409365
2019-04-25T00:14:31.483Z,47.409468
2019-04-25T00:15:34.312Z,47.409388
2019-04-25T00:16:37.267Z,47.409415
2019-04-25T00:17:41.953Z,47.409446
2019-04-25T00:18:45.264Z,47.409400
2019-04-25T00:19:48.563Z,47.409393
2019-04-25T00:20:52.208Z,47.409413
2019-04-25T00:21:55.290Z,47.409408
2019-04-25T00:22:58.349Z,47.409421
2019-04-25T00:24:02.636Z,47.409433
2019-04-25T00:25:14.993Z,47.409472
2019-04-25T00:26:13.269Z,47.409545
2019-04-25T00:27:16.285Z,47.409461
2019-04-25T00:28:19.304Z,47.409525
2019-04-25T00:29:22.308Z,47.409561
2019-04-25T00:30:25.281Z,47.409471
2019-04-25T00:31:28.270Z,47.409441
2019-04-25T00:32:31.610Z,47.409432
2019-04-25T00:33:33.290Z,47.409401
2019-04-25T00:34:36.299Z,47.409457
2019-04-25T00:35:39.280Z,47.409410
2019-04-25T00:36:43.505Z,47.409482
2019-04-25T00:37:47.790Z,47.409516
2019-04-25T00:38:52.314Z,47.409515
2019-04-25T00:39:56.281Z,47.409522
2019-04-25T00:40:59.269Z,47.409450
2019-04-25T00:42:02.512Z,47.409426
2019-04-25T00:43:05.297Z,47.409419
2019-04-25T00:44:08.295Z,47.409402
2019-04-25T00:45:11.917Z,47.409467
2019-04-25T00:46:17.301Z,47.409496
2019-04-25T00:47:21.629Z,47.409498
2019-04-25T00:48:23.345Z,47.409492
2019-04-25T00:49:26.283Z,47.409495
2019-04-25T00:50:29.323Z,47.409460
2019-04-25T00:51:32.281Z,47.409442
2019-04-25T00:52:35.298Z,47.409513
2019-04-25T00:53:38.297Z,47.409471
2019-04-25T00:54:42.240Z,47.409542
2019-04-25T00:55:46.480Z,47.409461
2019-04-25T00:56:49.398Z,47.409447
2019-04-25T00:57:52.809Z,47.409495
2019-04-25T00:58:56.290Z,47.409498
2019-04-25T00:59:59.303Z,47.409457
2019-04-25T01:01:02.285Z,47.409400
2019-04-25T01:02:07.565Z,47.409413
2019-04-25T01:03:09.353Z,47.409421
2019-04-25T01:04:12.325Z,47.409428
2019-04-25T01:05:15.303Z,47.409453
2019-04-25T01:06:18.281Z,47.409461
2019-04-25T01:07:22.377Z,47.409511
2019-04-25T01:08:25.339Z,47.409517
2019-04-25T01:09:28.325Z,47.409442
2019-04-25T01:10:31.613Z,47.409466
2019-04-25T01:11:34.290Z,47.409448
2019-04-25T01:12:37.305Z,47.409460
2019-04-25T01:13:39.285Z,47.409492
2019-04-25T01:14:42.301Z,47.409448
2019-04-25T01:15:45.271Z,47.409536
2019-04-25T01:16:48.616Z,47.409512
2019-04-25T01:17:51.519Z,47.409492
2019-04-25T01:18:55.600Z,47.409470
2019-04-25T01:19:58.286Z,47.409400
2019-04-25T01:21:01.266Z,47.409398
2019-04-25T01:22:04.306Z,47.409374
2019-04-25T01:23:07.294Z,47.409371
2019-04-25T01:24:10.283Z,47.409400
2019-04-25T01:25:13.776Z,47.409467
2019-04-25T01:26:17.308Z,47.409357
2019-04-25T01:27:20.282Z,47.409341
2019-04-25T01:28:24.318Z,47.409325
2019-04-25T01:29:27.275Z,47.409375
2019-04-25T01:30:30.275Z,47.409374
2019-04-25T01:31:33.643Z,47.409472
2019-04-25T01:32:36.281Z,47.409418
2019-04-25T01:33:39.330Z,47.409337
2019-04-25T01:34:44.146Z,47.409380
2019-04-25T01:35:47.281Z,47.409367
2019-04-25T01:36:50.764Z,47.409416
2019-04-25T01:37:55.272Z,47.409381
2019-04-25T01:38:59.301Z,47.409394
2019-04-25T01:40:04.014Z,47.409401
2019-04-25T01:41:07.298Z,47.409473
2019-04-25T01:42:10.289Z,47.409416
2019-04-25T01:43:13.749Z,47.409444
2019-04-25T01:44:17.306Z,47.409408
2019-04-25T01:45:20.314Z,47.409425
2019-04-25T01:46:24.285Z,47.409450
2019-04-25T01:47:27.339Z,47.409378
2019-04-25T01:48:30.283Z,47.409471
2019-04-25T01:49:33.957Z,47.409495
2019-04-25T01:50:37.301Z,47.409475
2019-04-25T01:51:40.309Z,47.409394
2019-04-25T01:52:43.481Z,47.409399
2019-04-25T01:53:46.285Z,47.409308
2019-04-25T01:54:49.360Z,47.409299
2019-04-25T01:56:00.954Z,47.409356
2019-04-25T01:57:00.318Z,47.409442
2019-04-25T01:58:03.855Z,47.409405
2019-04-25T01:59:07.287Z,47.409430
2019-04-25T02:00:09.314Z,47.409359
2019-04-25T02:01:12.258Z,47.409277
2019-04-25T02:02:15.297Z,47.409252
2019-04-25T02:03:17.289Z,47.409227
2019-04-25T02:04:20.331Z,47.409297
2019-04-25T02:05:23.779Z,47.409298
2019-04-25T02:06:26.320Z,47.409366
2019-04-25T02:07:29.273Z,47.409336
2019-04-25T02:08:33.873Z,47.409339
2019-04-25T02:09:37.297Z,47.409361
2019-04-25T02:10:40.352Z,47.409345
2019-04-25T02:11:43.943Z,47.409343
2019-04-25T02:12:47.307Z,47.409302
2019-04-25T02:13:51.272Z,47.409349
2019-04-25T02:14:55.497Z,47.409381
2019-04-25T02:15:59.310Z,47.409378
2019-04-25T02:17:02.898Z,47.409368
2019-04-25T02:18:07.321Z,47.409380
2019-04-25T02:19:10.288Z,47.409394
2019-04-25T02:20:14.007Z,47.409385
2019-04-25T02:21:17.288Z,47.409387
2019-04-25T02:22:20.316Z,47.409375
2019-04-25T02:23:24.073Z,47.409364
2019-04-25T02:24:27.297Z,47.409375
2019-04-25T02:25:30.336Z,47.409373
2019-04-25T02:26:34.038Z,47.409344
2019-04-25T02:27:37.342Z,47.409400
2019-04-25T02:28:40.318Z,47.409337
2019-04-25T02:29:44.686Z,47.409365
2019-04-25T02:30:48.342Z,47.409381
2019-04-25T02:31:51.335Z,47.409403
2019-04-25T02:32:58.400Z,47.409405
2019-04-25T02:34:04.643Z,47.409403
2019-04-25T02:35:10.324Z,47.409386
2019-04-25T02:36:15.026Z,47.409409
2019-04-25T02:37:18.313Z,47.409452
2019-04-25T02:38:21.305Z,47.409451
2019-04-25T02:39:24.625Z,47.409409
2019-04-25T02:40:27.358Z,47.409397
2019-04-25T02:41:30.323Z,47.409464
2019-04-25T02:42:34.392Z,47.409425
2019-04-25T02:43:37.321Z,47.409411
2019-04-25T02:44:40.293Z,47.409405
2019-04-25T02:45:44.256Z,47.409346
2019-04-25T02:46:47.317Z,47.409356
2019-04-25T02:47:50.303Z,47.409395
2019-04-25T02:48:56.219Z,47.409411
2019-04-25T02:50:00.893Z,47.409430
2019-04-25T02:51:07.172Z,47.409388
2019-04-25T02:52:12.873Z,47.409378
2019-04-25T02:53:17.302Z,47.409359
2019-04-25T02:54:20.335Z,47.409411
2019-04-25T02:55:34.019Z,47.409372
2019-04-25T02:56:37.690Z,47.409428
2019-04-25T02:57:39.311Z,47.409385
2019-04-25T02:58:44.147Z,47.409377
2019-04-25T02:59:47.279Z,47.409382
2019-04-25T03:00:57.409Z,47.409384
2019-04-25T03:01:58.995Z,47.409388
2019-04-25T03:03:03.382Z,47.409418
2019-04-25T03:04:10.993Z,47.409462
2019-04-25T03:05:14.517Z,47.409408
2019-04-25T03:06:16.304Z,47.409399
2019-04-25T03:07:19.378Z,47.409376
2019-04-25T03:08:24.250Z,47.409382
2019-04-25T03:09:27.310Z,47.409400
2019-04-25T03:10:29.323Z,47.409408
2019-04-25T03:11:32.281Z,47.409397
2019-04-25T03:12:36.794Z,47.409453
2019-04-25T03:13:40.290Z,47.409431
2019-04-25T03:14:44.645Z,47.409421
2019-04-25T03:15:48.311Z,47.409449
2019-04-25T03:16:51.315Z,47.409421
2019-04-25T03:17:54.775Z,47.409437
2019-04-25T03:18:59.424Z,47.409407
2019-04-25T03:20:06.707Z,47.409412
2019-04-25T03:21:14.201Z,47.409430
2019-04-25T03:22:18.299Z,47.409420
2019-04-25T03:23:21.312Z,47.409411
2019-04-25T03:24:25.080Z,47.409408
2019-04-25T03:25:28.298Z,47.409381
2019-04-25T03:26:39.725Z,47.409408
2019-04-25T03:27:39.309Z,47.409385
2019-04-25T03:28:43.741Z,47.409383
2019-04-25T03:29:47.289Z,47.409408
2019-04-25T03:30:50.340Z,47.409415
2019-04-25T03:31:56.146Z,47.409433
2019-04-25T03:33:01.035Z,47.409409
2019-04-25T03:34:09.360Z,47.409360
2019-04-25T03:35:14.327Z,47.409414
2019-04-25T03:36:17.328Z,47.409468
2019-04-25T03:37:20.265Z,47.409478
2019-04-25T03:38:24.257Z,47.409428
2019-04-25T03:39:27.283Z,47.409413
2019-04-25T03:40:30.338Z,47.409387
2019-04-25T03:41:34.119Z,47.409415
2019-04-25T03:42:37.309Z,47.409427
2019-04-25T03:43:40.288Z,47.409440
2019-04-25T03:44:43.807Z,47.409452
2019-04-25T03:45:46.304Z,47.409422
2019-04-25T03:46:49.336Z,47.409334
2019-04-25T03:47:53.167Z,47.409340
2019-04-25T03:48:56.279Z,47.409266
2019-04-25T03:49:59.316Z,47.409343
2019-04-25T03:51:02.858Z,47.409367
2019-04-25T03:52:08.280Z,47.409387
2019-04-25T03:53:12.094Z,47.409363
2019-04-25T03:54:15.310Z,47.409325
2019-04-25T03:55:18.293Z,47.409335
2019-04-25T03:56:21.349Z,47.409421
2019-04-25T03:57:24.270Z,47.409419
2019-04-25T03:58:27.280Z,47.409411
2019-04-25T03:59:30.317Z,47.409428
2019-04-25T04:00:34.202Z,47.409459
2019-04-25T04:01:39.339Z,47.409463
2019-04-25T04:02:44.100Z,47.409420
2019-04-25T04:03:47.311Z,47.409366
2019-04-25T04:04:50.280Z,47.409390
2019-04-25T04:05:53.992Z,47.409364
2019-04-25T04:06:57.341Z,47.409377
2019-04-25T04:07:59.454Z,47.409398
2019-04-25T04:09:03.703Z,47.409376
2019-04-25T04:10:06.645Z,47.409399
2019-04-25T04:11:10.138Z,47.409408
2019-04-25T04:12:14.775Z,47.409382
2019-04-25T04:13:17.319Z,47.409366
2019-04-25T04:14:20.317Z,47.409374
2019-04-25T04:15:25.096Z,47.409446
2019-04-25T04:16:28.274Z,47.409455
2019-04-25T04:17:31.345Z,47.409414
2019-04-25T04:18:34.012Z,47.409452
2019-04-25T04:19:37.289Z,47.409455
2019-04-25T04:20:40.310Z,47.409438
2019-04-25T04:21:43.336Z,47.409455
2019-04-25T04:22:46.338Z,47.409416
2019-04-25T04:23:49.266Z,47.409363
2019-04-25T04:24:53.685Z,47.409401
2019-04-25T04:25:57.295Z,47.409413
2019-04-25T04:27:03.631Z,47.409408
2019-04-25T04:28:08.350Z,47.409416
2019-04-25T04:29:12.090Z,47.409373
2019-04-25T04:30:15.388Z,47.409390
2019-04-25T04:31:18.277Z,47.409359
2019-04-25T04:32:21.344Z,47.409302
2019-04-25T04:33:31.754Z,47.409319
2019-04-25T04:34:33.745Z,47.409324
2019-04-25T04:35:37.294Z,47.409326
2019-04-25T04:36:40.331Z,47.409264
2019-04-25T04:37:43.297Z,47.409296
2019-04-25T04:38:46.358Z,47.409311
2019-04-25T04:39:49.295Z,47.409384
2019-04-25T04:40:52.291Z,47.409382
2019-04-25T04:41:55.508Z,47.409402
2019-04-25T04:42:58.302Z,47.409424
2019-04-25T04:44:01.304Z,47.409466
2019-04-25T04:45:04.275Z,47.409497
2019-04-25T04:46:08.556Z,47.409395
2019-04-25T04:47:12.033Z,47.409343
2019-04-25T04:48:15.543Z,47.409470
2019-04-25T04:49:18.491Z,47.409544
2019-04-25T04:50:21.323Z,47.409433
2019-04-25T04:51:24.299Z,47.409328
2019-04-25T04:52:27.311Z,47.409320
2019-04-25T04:53:30.302Z,47.409434
2019-04-25T04:54:34.430Z,47.409576
2019-04-25T04:55:37.331Z,47.409561
2019-04-25T04:56:40.278Z,47.409542
2019-04-25T04:57:44.778Z,47.409578
2019-04-25T04:58:48.308Z,47.409573
2019-04-25T04:59:51.343Z,47.409494
2019-04-25T05:00:54.284Z,47.409518
2019-04-25T05:01:57.304Z,47.409506
2019-04-25T05:03:00.342Z,47.409562
2019-04-25T05:04:03.962Z,47.409471
2019-04-25T05:05:07.304Z,47.409467
2019-04-25T05:06:10.924Z,47.409404
2019-04-25T05:07:15.305Z,47.409495
2019-04-25T05:08:19.309Z,47.409481
2019-04-25T05:09:23.787Z,47.409534
2019-04-25T05:10:27.272Z,47.409583
2019-04-25T05:11:30.298Z,47.409633
2019-04-25T05:12:33.935Z,47.409492
2019-04-25T05:13:37.305Z,47.409478
2019-04-25T05:14:40.335Z,47.409536
2019-04-25T05:15:44.587Z,47.409447
2019-04-25T05:16:49.481Z,47.409416
2019-04-25T05:17:54.000Z,47.409426
2019-04-25T05:18:57.328Z,47.409415
2019-04-25T05:20:00.290Z,47.409464
2019-04-25T05:21:04.250Z,47.409424
2019-04-25T05:22:07.310Z,47.409470
2019-04-25T05:23:09.342Z,47.409430
2019-04-25T05:24:13.468Z,47.409419
2019-04-25T05:25:19.152Z,47.409459
2019-04-25T05:26:24.666Z,47.409490
2019-04-25T05:27:35.754Z,47.409385
2019-04-25T05:28:36.372Z,47.409424
2019-04-25T05:29:39.312Z,47.409328
2019-04-25T05:30:43.598Z,47.409358
2019-04-25T05:31:46.318Z,47.409431
2019-04-25T05:32:49.381Z,47.409372
2019-04-25T05:33:53.660Z,47.409363
2019-04-25T05:34:57.331Z,47.409328
2019-04-25T05:36:00.312Z,47.409361
2019-04-25T05:37:03.835Z,47.409396
2019-04-25T05:38:07.317Z,47.409442
2019-04-25T05:39:10.288Z,47.409414
2019-04-25T05:40:14.721Z,47.409420
2019-04-25T05:41:20.229Z,47.409423
2019-04-25T05:42:24.809Z,47.409345
2019-04-25T05:43:28.274Z,47.409394
2019-04-25T05:44:31.357Z,47.409347
2019-04-25T05:45:34.308Z,47.409368
2019-04-25T05:46:37.283Z,47.409372
2019-04-25T05:47:40.336Z,47.409385
2019-04-25T05:48:43.853Z,47.409374
2019-04-25T05:49:47.344Z,47.409403
2019-04-25T05:50:50.276Z,47.409390
2019-04-25T05:51:53.890Z,47.409388
2019-04-25T05:52:56.316Z,47.409374
2019-04-25T05:53:59.324Z,47.409374
2019-04-25T05:55:03.860Z,47.409376
2019-04-25T05:56:07.298Z,47.409369
2019-04-25T05:57:10.339Z,47.409361
2019-04-25T05:58:13.822Z,47.409363
2019-04-25T05:59:18.024Z,47.409381
2019-04-25T06:00:21.320Z,47.409381
2019-04-25T06:01:24.974Z,47.409384
2019-04-25T06:02:29.305Z,47.409392
2019-04-25T06:03:33.803Z,47.409389
2019-04-25T06:04:37.310Z,47.409354
2019-04-25T06:05:40.332Z,47.409412
2019-04-25T06:06:44.614Z,47.409408
2019-04-25T06:07:47.289Z,47.409395
2019-04-25T06:08:50.345Z,47.409414
2019-04-25T06:09:54.527Z,47.409371
2019-04-25T06:10:58.348Z,47.409382
2019-04-25T06:12:01.314Z,47.409437
2019-04-25T06:13:04.312Z,47.409351
2019-04-25T06:14:07.337Z,47.409326
2019-04-25T06:15:10.308Z,47.409401
2019-04-25T06:16:13.509Z,47.409449
2019-04-25T06:17:15.323Z,47.409344
2019-04-25T06:18:19.752Z,47.409348
2019-04-25T06:19:25.186Z,47.409436
2019-04-25T06:20:28.329Z,47.409398
2019-04-25T06:21:31.866Z,47.409388
2019-04-25T06:22:36.332Z,47.409370
2019-04-25T06:23:39.306Z,47.409380
2019-04-25T06:24:42.327Z,47.409415
2019-04-25T06:25:45.322Z,47.409393
2019-04-25T06:26:48.324Z,47.409424
2019-04-25T06:27:57.307Z,47.409407
2019-04-25T06:28:59.918Z,47.409404
2019-04-25T06:30:04.390Z,47.409386
2019-04-25T06:31:10.129Z,47.409377
2019-04-25T06:32:14.210Z,47.409375
2019-04-25T06:33:17.357Z,47.409376
2019-04-25T06:34:21.345Z,47.409394
2019-04-25T06:35:25.858Z,47.409398
2019-04-25T06:36:29.316Z,47.409427
2019-04-25T06:37:33.637Z,47.409407
2019-04-25T06:38:37.387Z,47.409402
2019-04-25T06:39:40.308Z,47.409436
2019-04-25T06:40:43.773Z,47.409441
2019-04-25T06:41:47.349Z,47.409423
2019-04-25T06:42:49.327Z,47.409422
2019-04-25T06:43:53.988Z,47.409433
2019-04-25T06:44:57.314Z,47.409436
2019-04-25T06:46:00.335Z,47.409452
2019-04-25T06:47:03.437Z,47.409431
2019-04-25T06:48:06.304Z,47.409412
2019-04-25T06:49:09.337Z,47.409421
2019-04-25T06:50:13.663Z,47.409395
2019-04-25T06:51:18.321Z,47.409398
2019-04-25T06:52:21.610Z,47.409417
2019-04-25T06:53:26.040Z,47.409403
2019-04-25T06:54:30.365Z,47.409398
2019-04-25T06:55:34.290Z,47.409396
2019-04-25T06:56:37.278Z,47.409404
2019-04-25T06:57:40.316Z,47.409380
2019-04-25T06:58:43.858Z,47.409390
2019-04-25T06:59:46.360Z,47.409365
2019-04-25T07:00:58.059Z,47.409368
2019-04-25T07:01:57.303Z,47.409403
2019-04-25T07:02:59.353Z,47.409394
2019-04-25T07:04:01.461Z,47.409370
2019-04-25T07:05:05.396Z,47.409406
2019-04-25T07:06:10.300Z,47.409428
2019-04-25T07:07:14.961Z,47.409402
2019-04-25T07:08:18.311Z,47.409381
2019-04-25T07:09:24.172Z,47.409397
2019-04-25T07:10:29.504Z,47.409411
2019-04-25T07:11:32.972Z,47.409388
2019-04-25T07:12:38.305Z,47.409358
2019-04-25T07:13:41.306Z,47.409454
2019-04-25T07:14:44.295Z,47.409458
2019-04-25T07:15:47.309Z,47.409449
2019-04-25T07:16:50.318Z,47.409478
2019-04-25T07:17:54.027Z,47.409395
2019-04-25T07:18:57.371Z,47.409455
2019-04-25T07:20:00.328Z,47.409417
2019-04-25T07:21:03.409Z,47.409408
2019-04-25T07:22:06.290Z,47.409405
2019-04-25T07:23:09.309Z,47.409351
2019-04-25T07:24:14.124Z,47.409395
2019-04-25T07:25:17.287Z,47.409379
2019-04-25T07:26:19.352Z,47.409425
2019-04-25T07:27:23.688Z,47.409392
2019-04-25T07:28:30.829Z,47.409413
2019-04-25T07:29:34.869Z,47.409463
2019-04-25T07:30:49.968Z,47.409440
2019-04-25T07:31:47.291Z,47.409386
2019-04-25T07:32:50.304Z,47.409430
2019-04-25T07:33:55.300Z,47.409312
2019-04-25T07:34:58.371Z,47.409471
2019-04-25T07:36:01.275Z,47.409426
2019-04-25T07:37:04.315Z,47.409476
2019-04-25T07:38:07.299Z,47.409532
2019-04-25T07:39:10.738Z,47.409569
2019-04-25T07:40:14.323Z,47.409487
2019-04-25T07:41:17.332Z,47.409449
2019-04-25T07:42:20.343Z,47.409465
2019-04-25T07:43:23.439Z,47.409440
2019-04-25T07:44:38.765Z,47.409444
2019-04-25T07:45:35.056Z,47.409353
2019-04-25T07:46:39.983Z,47.409451
2019-04-25T07:47:44.101Z,47.409518
2019-04-25T07:48:46.318Z,47.409540
2019-04-25T07:49:49.364Z,47.409406
2019-04-25T07:50:53.639Z,47.409542
2019-04-25T07:51:57.326Z,47.409473
2019-04-25T07:53:00.309Z,47.409480
2019-04-25T07:54:04.528Z,47.409443
2019-04-25T07:55:07.319Z,47.409398
2019-04-25T07:56:10.358Z,47.409482
2019-04-25T07:57:13.588Z,47.409507
2019-04-25T07:58:17.327Z,47.409436
2019-04-25T07:59:20.317Z,47.409515
2019-04-25T08:00:24.032Z,47.409519
2019-04-25T08:01:28.115Z,47.409498
2019-04-25T08:02:33.832Z,47.409445
2019-04-25T08:03:37.313Z,47.409511
2019-04-25T08:04:40.310Z,47.409556
2019-04-25T08:05:43.992Z,47.409558
2019-04-25T08:06:47.337Z,47.409519
2019-04-25T08:07:49.389Z,47.409537
2019-04-25T08:08:52.297Z,47.409542
2019-04-25T08:09:55.314Z,47.409514
2019-04-25T08:10:58.323Z,47.409465
2019-04-25T08:12:01.303Z,47.409454
2019-04-25T08:13:04.949Z,47.409453
2019-04-25T08:14:08.291Z,47.409344
2019-04-25T08:15:11.395Z,47.409323
2019-04-25T08:16:14.614Z,47.409368
2019-04-25T08:17:18.317Z,47.409308
2019-04-25T08:18:23.356Z,47.409328
2019-04-25T08:19:28.729Z,47.409356
2019-04-25T08:20:34.042Z,47.409298
2019-04-25T08:21:37.289Z,47.409403
2019-04-25T08:22:51.965Z,47.409415
2019-04-25T08:23:48.313Z,47.409495
2019-04-25T08:24:51.317Z,47.409434
2019-04-25T08:25:54.479Z,47.409335
2019-04-25T08:26:57.357Z,47.409328
2019-04-25T08:28:00.310Z,47.409354
2019-04-25T08:29:03.653Z,47.409348
2019-04-25T08:30:07.313Z,47.409344
2019-04-25T08:31:10.332Z,47.409385
2019-04-25T08:32:14.245Z,47.409345
2019-04-25T08:33:17.314Z,47.409382
2019-04-25T08:34:20.322Z,47.409313
2019-04-25T08:35:24.100Z,47.409345
2019-04-25T08:36:27.355Z,47.409327
2019-04-25T08:37:30.449Z,47.409312
2019-04-25T08:38:34.713Z,47.409330
2019-04-25T08:39:38.890Z,47.409300
2019-04-25T08:40:44.078Z,47.409291
2019-04-25T08:41:47.308Z,47.409273
2019-04-25T08:42:50.338Z,47.409321
2019-04-25T08:43:54.484Z,47.409347
2019-04-25T08:44:58.310Z,47.409349
2019-04-25T08:46:01.325Z,47.409378
2019-04-25T08:47:04.527Z,47.409341
2019-04-25T08:48:06.378Z,47.409361
2019-04-25T08:49:09.315Z,47.409377
2019-04-25T08:50:26.395Z,47.409313
2019-04-25T08:51:20.346Z,47.409303
2019-04-25T08:52:24.338Z,47.409317
2019-04-25T08:53:27.314Z,47.409313
2019-04-25T08:54:31.200Z,47.409285
2019-04-25T08:55:36.244Z,47.409333
2019-04-25T08:56:40.308Z,47.409342
2019-04-25T08:57:44.009Z,47.409336
2019-04-25T08:58:47.332Z,47.409341
2019-04-25T08:59:52.672Z,47.409326
2019-04-25T09:01:00.928Z,47.409321
2019-04-25T09:02:04.356Z,47.409311
2019-04-25T09:03:07.321Z,47.409327
2019-04-25T09:04:10.286Z,47.409273
2019-04-25T09:05:14.463Z,47.409334
2019-04-25T09:06:19.382Z,47.409354
2019-04-25T09:07:23.564Z,47.409382
2019-04-25T09:08:26.293Z,47.409316
2019-04-25T09:09:32.490Z,47.409360
2019-04-25T09:10:39.977Z,47.409311
2019-04-25T09:11:45.921Z,47.409345
2019-04-25T09:12:50.293Z,47.409350
2019-04-25T09:13:53.714Z,47.409370
2019-04-25T09:14:57.304Z,47.409320
2019-04-25T09:16:00.333Z,47.409244
2019-04-25T09:17:03.337Z,47.409324
2019-04-25T09:18:06.329Z,47.409344
2019-04-25T09:19:09.347Z,47.409388
2019-04-25T09:20:13.776Z,47.409396
2019-04-25T09:21:17.341Z,47.409371
2019-04-25T09:22:20.310Z,47.409381
2019-04-25T09:23:23.698Z,47.409377
2019-04-25T09:24:26.310Z,47.409363
2019-04-25T09:25:29.315Z,47.409378
2019-04-25T09:26:33.960Z,47.409356
2019-04-25T09:27:40.364Z,47.409375
2019-04-25T09:28:46.307Z,47.409401
2019-04-25T09:29:50.315Z,47.409365
2019-04-25T09:30:54.018Z,47.409384
2019-04-25T09:31:57.312Z,47.409354
2019-04-25T09:33:00.370Z,47.409351
2019-04-25T09:34:04.077Z,47.409432
2019-04-25T09:35:07.284Z,47.409447
2019-04-25T09:36:10.366Z,47.409363
2019-04-25T09:37:14.251Z,47.409294
2019-04-25T09:38:17.374Z,47.409380
2019-04-25T09:39:20.294Z,47.409279
2019-04-25T09:40:23.966Z,47.409299
2019-04-25T09:41:27.318Z,47.409273
2019-04-25T09:42:30.355Z,47.409349
2019-04-25T09:43:33.563Z,47.409460
2019-04-25T09:44:38.450Z,47.409395
2019-04-25T09:45:43.924Z,47.409294
2019-04-25T09:46:47.800Z,47.409494
2019-04-25T09:47:51.331Z,47.409414
2019-04-25T09:48:54.329Z,47.409392
2019-04-25T09:49:57.351Z,47.409361
2019-04-25T09:51:00.315Z,47.409382
2019-04-25T09:52:04.396Z,47.409347
2019-04-25T09:53:07.340Z,47.409425
2019-04-25T09:54:10.318Z,47.409424
2019-04-25T09:55:13.258Z,47.409377
2019-04-25T09:56:16.338Z,47.409319
2019-04-25T09:57:19.321Z,47.409232
2019-04-25T09:58:23.743Z,47.409297
2019-04-25T09:59:29.983Z,47.409308
2019-04-25T10:00:33.483Z,47.409251
2019-04-25T10:01:36.542Z,47.409266
2019-04-25T10:02:40.215Z,47.409451
2019-04-25T10:03:44.303Z,47.409391
2019-04-25T10:04:48.289Z,47.409306
2019-04-25T10:05:51.339Z,47.409335
2019-04-25T10:06:54.263Z,47.409360
2019-04-25T10:07:57.324Z,47.409382
2019-04-25T10:09:00.307Z,47.409375
2019-04-25T10:10:03.737Z,47.409304
2019-04-25T10:11:07.300Z,47.409413
2019-04-25T10:12:10.296Z,47.409342
2019-04-25T10:13:13.308Z,47.409309
2019-04-25T10:14:16.325Z,47.409349
2019-04-25T10:15:19.327Z,47.409310
2019-04-25T10:16:22.322Z,47.409360
2019-04-25T10:17:25.300Z,47.409308
2019-04-25T10:18:28.340Z,47.409378
2019-04-25T10:19:31.332Z,47.409371
2019-04-25T10:20:34.355Z,47.409486
2019-04-25T10:21:38.035Z,47.409460
2019-04-25T10:22:42.275Z,47.409445
2019-04-25T10:23:46.836Z,47.409453
2019-04-25T10:24:59.890Z,47.409432
2019-04-25T10:25:58.319Z,47.409441
2019-04-25T10:27:01.326Z,47.409455
2019-04-25T10:28:04.425Z,47.409385
2019-04-25T10:29:07.382Z,47.409436
2019-04-25T10:30:17.646Z,47.409341
2019-04-25T10:31:18.324Z,47.409326
2019-04-25T10:32:21.338Z,47.409432
2019-04-25T10:33:24.359Z,47.409391
2019-04-25T10:34:27.364Z,47.409360
2019-04-25T10:35:30.340Z,47.409407
2019-04-25T10:36:33.707Z,47.409412
2019-04-25T10:37:36.309Z,47.409319
2019-04-25T10:38:40.262Z,47.409348
2019-04-25T10:39:43.831Z,47.409284
2019-04-25T10:40:48.328Z,47.409194
2019-04-25T10:41:51.327Z,47.409307
2019-04-25T10:42:54.327Z,47.409324
2019-04-25T10:43:57.314Z,47.409335
2019-04-25T10:45:00.338Z,47.409350
2019-04-25T10:46:03.745Z,47.409328
2019-04-25T10:47:08.285Z,47.409363
2019-04-25T10:48:11.272Z,47.409400
2019-04-25T10:49:14.625Z,47.409435
2019-04-25T10:50:17.298Z,47.409510
2019-04-25T10:51:20.323Z,47.409400
2019-04-25T10:52:23.455Z,47.409538
2019-04-25T10:53:26.315Z,47.409555
2019-04-25T10:54:29.346Z,47.409636
2019-04-25T10:55:32.345Z,47.409575
2019-04-25T10:56:35.314Z,47.409498
2019-04-25T10:57:38.348Z,47.409498
2019-04-25T10:58:41.568Z,47.409430
2019-04-25T10:59:56.033Z,47.409410
2019-04-25T11:00:52.946Z,47.409310
2019-04-25T11:01:56.348Z,47.409408
2019-04-25T11:02:59.269Z,47.409400
2019-04-25T11:04:02.349Z,47.409394
2019-04-25T11:05:04.399Z,47.409414
2019-04-25T11:06:07.328Z,47.409391
2019-04-25T11:07:10.311Z,47.409385
2019-04-25T11:08:13.762Z,47.409326
2019-04-25T11:09:17.353Z,47.409288
2019-04-25T11:10:20.369Z,47.409318
2019-04-25T11:11:24.131Z,47.409305
2019-04-25T11:12:27.306Z,47.409370
2019-04-25T11:13:30.326Z,47.409363
2019-04-25T11:14:34.259Z,47.409346
2019-04-25T11:15:37.338Z,47.409298
2019-04-25T11:16:40.335Z,47.409310
2019-04-25T11:17:46.513Z,47.409345
2019-04-25T11:18:49.626Z,47.409330
2019-04-25T11:19:54.259Z,47.409360
2019-04-25T11:20:59.194Z,47.409324
2019-04-25T11:22:03.897Z,47.409341
2019-04-25T11:23:07.333Z,47.409303
2019-04-25T11:24:10.305Z,47.409274
2019-04-25T11:25:14.926Z,47.409291
2019-04-25T11:26:18.331Z,47.409314
2019-04-25T11:27:21.328Z,47.409298
2019-04-25T11:28:24.341Z,47.409321
2019-04-25T11:29:27.300Z,47.409288
2019-04-25T11:30:30.352Z,47.409295
2019-04-25T11:31:33.759Z,47.409301
2019-04-25T11:32:37.315Z,47.409351
2019-04-25T11:33:41.384Z,47.409352
2019-04-25T11:34:46.072Z,47.409309
2019-04-25T11:35:50.320Z,47.409337
2019-04-25T11:36:53.347Z,47.409366
2019-04-25T11:37:56.901Z,47.409384
2019-04-25T11:39:00.299Z,47.409407
2019-04-25T11:40:04.286Z,47.409352
2019-04-25T11:41:06.318Z,47.409298
2019-04-25T11:42:09.315Z,47.409300
2019-04-25T11:43:12.317Z,47.409348
2019-04-25T11:44:15.334Z,47.409415
2019-04-25T11:45:18.297Z,47.409384
2019-04-25T11:46:21.322Z,47.409342
2019-04-25T11:47:24.386Z,47.409315
2019-04-25T11:48:27.288Z,47.409270
2019-04-25T11:49:30.309Z,47.409296
2019-04-25T11:50:33.307Z,47.409354
2019-04-25T11:51:36.353Z,47.409374
2019-04-25T11:52:39.354Z,47.409379
2019-04-25T11:53:44.025Z,47.409414
2019-04-25T11:54:48.296Z,47.409380
2019-04-25T11:55:51.469Z,47.409338
2019-04-25T11:56:56.440Z,47.409360
2019-04-25T11:57:59.305Z,47.409437
2019-04-25T11:59:02.340Z,47.409452
2019-04-25T12:00:05.271Z,47.409367
2019-04-25T12:01:08.329Z,47.409343
2019-04-25T12:02:11.320Z,47.409387
2019-04-25T12:03:14.324Z,47.409388
2019-04-25T12:04:17.356Z,47.409380
2019-04-25T12:05:20.334Z,47.409466
2019-04-25T12:06:24.321Z,47.409388